Terminal Aerodrome Forecast
Issued by NWS Burlington, VT

Home | Current Version | Previous Version | Text Only | Print | Product List | Glossary On
Versions: 1 2 3 4 5 6 7 8 9 10 11 12 13 14 15 16 17 18
000
FTUS41 KBTV 310520
TAFBTV
TAF
KBTV 310520Z 3106/0106 20006KT P6SM SCT080
     FM311400 25010G16KT P6SM SCT070
     FM010000 20005KT P6SM SCT060=

USA.gov is the U.S. government's official web portal to all federal, state and local government web resources and services.